Time;durP1;ratioP1;P1;durP2;ratioP2;P2;SDS_P1;SDS_P2;PMS_P1;PMS_P2;Temp;Humidity;BMP_temperature;BMP_pressure;BME280_temperature;BME280_humidity;BME280_pressure;Samples;Min_cycle;Max_cycle;Signal;HPM_P1;HPM_P2
2022/08/01 00:00:40;;;;;;;0.35;0.35;;;21.00;99.90;;;;;;5031065;28;20458;-65
2022/08/01 00:03:06;;;;;;;0.32;0.32;;;21.00;99.90;;;;;;5017769;28;20909;-65
2022/08/01 00:05:33;;;;;;;0.40;0.40;;;21.00;99.90;;;;;;5022034;28;20532;-65
2022/08/01 00:08:00;;;;;;;0.25;0.25;;;20.90;99.90;;;;;;5026450;28;21012;-65
2022/08/01 00:10:30;;;;;;;0.30;0.30;;;20.90;99.90;;;;;;5010704;28;20425;-65
2022/08/01 00:12:57;;;;;;;0.40;0.40;;;21.00;99.90;;;;;;5021337;28;20459;-65
2022/08/01 00:15:23;;;;;;;0.22;0.22;;;21.10;99.90;;;;;;5028962;28;20834;-65
2022/08/01 00:17:50;;;;;;;0.20;0.20;;;21.20;99.90;;;;;;5013334;28;20524;-65
2022/08/01 00:20:17;;;;;;;0.30;0.30;;;21.30;99.90;;;;;;5017193;28;20519;-66
2022/08/01 00:22:43;;;;;;;0.20;0.20;;;21.20;99.90;;;;;;5020745;28;20501;-65
2022/08/01 00:25:13;;;;;;;0.50;0.30;;;21.20;99.90;;;;;;5032491;28;20430;-65
2022/08/01 00:27:40;;;;;;;0.20;0.20;;;21.20;99.90;;;;;;5024303;28;20440;-65
2022/08/01 00:30:07;;;;;;;0.30;0.30;;;21.10;99.90;;;;;;5024072;28;20430;-66
2022/08/01 00:32:41;;;;;;;0.20;0.20;;;21.20;99.90;;;;;;5020084;28;20927;-65
2022/08/01 00:35:11;;;;;;;0.30;0.30;;;21.10;99.90;;;;;;5022916;28;20462;-65
2022/08/01 00:37:37;;;;;;;0.30;0.30;;;21.10;99.90;;;;;;5064237;28;20514;-65
2022/08/01 00:40:05;;;;;;;0.32;0.32;;;21.00;99.90;;;;;;5034610;28;20433;-65
2022/08/01 00:42:32;;;;;;;0.30;0.30;;;21.00;99.90;;;;;;5026572;28;20431;-65
2022/08/01 00:44:59;;;;;;;0.30;0.30;;;20.90;99.90;;;;;;5029311;28;20448;-65
2022/08/01 00:47:26;;;;;;;0.22;0.22;;;20.90;99.90;;;;;;5034065;28;20445;-65
2022/08/01 00:49:55;;;;;;;0.30;0.30;;;20.80;99.90;;;;;;5033634;28;21006;-65
2022/08/01 00:52:22;;;;;;;0.40;0.40;;;20.70;99.90;;;;;;5031605;28;20436;-65
2022/08/01 00:54:50;;;;;;;0.30;0.30;;;20.60;99.90;;;;;;5023857;28;20877;-65
2022/08/01 00:57:17;;;;;;;0.65;0.43;;;20.50;99.90;;;;;;5031298;28;20521;-65
2022/08/01 01:00:05;;;;;;;0.20;0.20;;;20.30;99.90;;;;;;5025342;28;20497;-65
2022/08/01 01:02:33;;;;;;;0.40;0.40;;;20.20;99.90;;;;;;5022256;28;20430;-65
2022/08/01 01:05:00;;;;;;;0.30;0.30;;;20.10;99.90;;;;;;5027389;28;20479;-65
2022/08/01 01:07:46;;;;;;;0.30;0.30;;;20.10;99.90;;;;;;5024916;28;20441;-65
2022/08/01 01:10:49;;;;;;;0.40;0.40;;;20.00;99.90;;;;;;5030053;28;20440;-65
2022/08/01 01:13:34;;;;;;;0.20;0.20;;;19.80;99.90;;;;;;5036748;28;20425;-65
2022/08/01 01:16:17;;;;;;;0.30;0.30;;;19.70;99.90;;;;;;5031589;28;20433;-65
2022/08/01 01:19:02;;;;;;;0.30;0.30;;;19.50;99.90;;;;;;5032630;28;21514;-65
2022/08/01 01:21:45;;;;;;;0.30;0.30;;;19.30;99.90;;;;;;5021676;28;20528;-65
2022/08/01 01:24:49;;;;;;;0.50;0.50;;;19.20;99.90;;;;;;5021390;28;20422;-65
2022/08/01 01:27:40;;;;;;;0.30;0.30;;;19.10;99.90;;;;;;5018542;28;20456;-65
2022/08/01 01:30:07;;;;;;;0.30;0.30;;;19.00;99.90;;;;;;5024401;28;20426;-65
2022/08/01 01:32:38;;;;;;;0.40;0.40;;;18.90;99.90;;;;;;5020121;28;20466;-65
2022/08/01 01:35:16;;;;;;;0.35;0.35;;;18.90;99.90;;;;;;5026121;28;20535;-65
2022/08/01 01:37:46;;;;;;;0.60;0.50;;;18.80;99.90;;;;;;5020920;28;20463;-65
2022/08/01 01:40:15;;;;;;;0.50;0.50;;;18.80;99.90;;;;;;5016018;28;20436;-65
2022/08/01 01:42:42;;;;;;;0.30;0.30;;;18.70;99.90;;;;;;5024499;28;20460;-65
2022/08/01 01:45:10;;;;;;;0.40;0.40;;;18.60;99.90;;;;;;5023348;28;20498;-65
2022/08/01 01:47:38;;;;;;;0.30;0.30;;;18.50;99.90;;;;;;5029314;28;21113;-65
2022/08/01 01:50:08;;;;;;;0.30;0.30;;;18.50;99.90;;;;;;5016283;28;20489;-65
2022/08/01 01:52:39;;;;;;;0.40;0.40;;;18.40;99.90;;;;;;5052806;28;20424;-65
2022/08/01 01:55:11;;;;;;;0.30;0.30;;;18.30;99.90;;;;;;5023988;28;20427;-65
2022/08/01 01:57:41;;;;;;;0.30;0.30;;;18.20;99.90;;;;;;5023174;28;20502;-65
2022/08/01 02:00:11;;;;;;;0.30;0.30;;;18.20;99.90;;;;;;5022969;28;20500;-65
2022/08/01 02:02:39;;;;;;;0.30;0.30;;;18.10;99.90;;;;;;5023846;28;20436;-65
2022/08/01 02:05:09;;;;;;;0.40;0.40;;;18.10;99.90;;;;;;5032736;28;20468;-65
2022/08/01 02:07:38;;;;;;;0.30;0.30;;;18.10;99.90;;;;;;5028249;28;20469;-65
2022/08/01 02:10:06;;;;;;;0.38;0.38;;;18.10;99.90;;;;;;5029982;28;20813;-65
2022/08/01 02:12:36;;;;;;;0.40;0.40;;;18.10;99.90;;;;;;5025379;28;20457;-65
2022/08/01 02:15:04;;;;;;;0.55;0.40;;;18.10;99.90;;;;;;5012469;28;20427;-65
2022/08/01 02:17:32;;;;;;;0.30;0.30;;;18.20;99.90;;;;;;5012970;28;21006;-65
2022/08/01 02:19:59;;;;;;;0.20;0.20;;;18.20;99.90;;;;;;5022492;28;20914;-65
2022/08/01 02:22:32;;;;;;;0.30;0.30;;;18.10;99.90;;;;;;5029935;28;20444;-65
2022/08/01 02:24:58;;;;;;;0.30;0.30;;;18.10;99.90;;;;;;5023474;28;20429;-65
2022/08/01 02:27:51;;;;;;;0.40;0.40;;;18.10;99.90;;;;;;5032398;28;20480;-65
2022/08/01 02:30:19;;;;;;;0.30;0.30;;;18.10;99.90;;;;;;5027020;28;20890;-64
2022/08/01 02:32:53;;;;;;;0.28;0.28;;;18.10;99.90;;;;;;5027241;28;20429;-65
2022/08/01 02:35:26;;;;;;;0.40;0.40;;;18.10;99.90;;;;;;5025719;28;20509;-65
2022/08/01 02:37:55;;;;;;;0.30;0.30;;;18.10;99.90;;;;;;5025236;28;20425;-65
2022/08/01 02:40:22;;;;;;;0.38;0.38;;;18.10;99.90;;;;;;5033725;28;20426;-65
2022/08/01 02:42:52;;;;;;;0.40;0.25;;;18.10;99.90;;;;;;5030276;28;20459;-65
2022/08/01 02:45:23;;;;;;;0.30;0.30;;;18.00;99.90;;;;;;5025248;28;20523;-65
2022/08/01 02:47:51;;;;;;;0.50;0.40;;;18.00;99.90;;;;;;5016821;28;20547;-65
2022/08/01 02:50:20;;;;;;;0.30;0.30;;;18.00;99.90;;;;;;5022258;28;20433;-65
2022/08/01 02:52:51;;;;;;;0.50;0.47;;;18.00;99.90;;;;;;5036788;28;20985;-65
2022/08/01 02:55:19;;;;;;;0.30;0.30;;;18.00;99.90;;;;;;5041784;28;20460;-65
2022/08/01 02:57:47;;;;;;;0.40;0.40;;;18.00;99.90;;;;;;5024944;28;20426;-65
2022/08/01 03:00:19;;;;;;;0.30;0.30;;;18.00;99.90;;;;;;5022761;28;20454;-65
2022/08/01 03:02:51;;;;;;;0.35;0.28;;;17.90;99.90;;;;;;5024891;28;20472;-65
2022/08/01 03:05:18;;;;;;;0.30;0.30;;;17.90;99.90;;;;;;5044772;28;20439;-65
2022/08/01 03:07:45;;;;;;;0.30;0.30;;;17.80;99.90;;;;;;5020641;28;20433;-65
2022/08/01 03:10:16;;;;;;;0.30;0.30;;;17.70;99.90;;;;;;5018659;28;20520;-65
2022/08/01 03:12:45;;;;;;;0.30;0.30;;;17.70;99.90;;;;;;5018295;28;20435;-65
2022/08/01 03:15:15;;;;;;;0.22;0.22;;;17.60;99.90;;;;;;5009395;28;20444;-65
2022/08/01 03:17:45;;;;;;;0.30;0.30;;;17.50;99.90;;;;;;5023620;28;20432;-65
2022/08/01 03:20:15;;;;;;;0.70;0.40;;;17.40;99.90;;;;;;5016527;28;20446;-65
2022/08/01 03:22:47;;;;;;;0.30;0.30;;;17.30;99.90;;;;;;5018058;28;20531;-65
2022/08/01 03:25:16;;;;;;;0.28;0.28;;;17.20;99.90;;;;;;5028687;28;20555;-65
2022/08/01 03:27:45;;;;;;;0.35;0.30;;;17.10;99.90;;;;;;5034805;28;20502;-65
2022/08/01 03:30:15;;;;;;;0.30;0.20;;;17.00;99.90;;;;;;5021859;28;20450;-65
2022/08/01 03:32:42;;;;;;;0.50;0.30;;;16.80;99.90;;;;;;5024367;28;20920;-65
2022/08/01 03:35:09;;;;;;;0.38;0.38;;;16.80;99.90;;;;;;5020142;28;20459;-65
2022/08/01 03:37:45;;;;;;;0.50;0.50;;;16.80;99.90;;;;;;5033775;28;20433;-65
2022/08/01 03:40:43;;;;;;;0.20;0.20;;;16.70;99.90;;;;;;5029701;28;20425;-65
2022/08/01 03:43:31;;;;;;;0.30;0.30;;;16.60;99.90;;;;;;5023980;28;20522;-65
2022/08/01 03:46:07;;;;;;;0.38;0.38;;;16.60;99.90;;;;;;5028659;28;20434;-65
2022/08/01 03:48:46;;;;;;;0.30;0.30;;;16.60;99.90;;;;;;5019485;28;20432;-65
2022/08/01 03:51:15;;;;;;;0.40;0.38;;;16.60;99.90;;;;;;5023780;28;20533;-65
2022/08/01 03:53:44;;;;;;;0.30;0.30;;;16.60;99.90;;;;;;5026433;28;20439;-65
2022/08/01 03:56:16;;;;;;;0.30;0.30;;;16.50;99.90;;;;;;5027146;28;20423;-65
2022/08/01 03:58:45;;;;;;;0.30;0.30;;;16.50;99.90;;;;;;5028146;28;20503;-64
2022/08/01 04:01:17;;;;;;;0.38;0.38;;;16.50;99.90;;;;;;5028608;28;20431;-65
2022/08/01 04:03:44;;;;;;;0.30;0.30;;;16.60;99.90;;;;;;5027055;28;20504;-65
2022/08/01 04:06:13;;;;;;;0.30;0.30;;;16.60;99.90;;;;;;5029455;28;20469;-65
2022/08/01 04:08:41;;;;;;;0.40;0.40;;;16.60;99.90;;;;;;5036769;28;20442;-65
2022/08/01 04:11:09;;;;;;;0.20;0.20;;;16.80;99.90;;;;;;5032666;28;20903;-66
2022/08/01 04:13:36;;;;;;;0.40;0.38;;;16.90;99.90;;;;;;5026468;28;20431;-65
2022/08/01 04:16:04;;;;;;;0.30;0.30;;;17.00;99.90;;;;;;5029005;28;20432;-65
2022/08/01 04:18:32;;;;;;;0.30;0.30;;;17.10;99.90;;;;;;5022723;28;20439;-65
2022/08/01 04:20:58;;;;;;;0.38;0.38;;;17.20;99.90;;;;;;5019408;28;21010;-65
2022/08/01 04:23:27;;;;;;;0.30;0.30;;;17.30;99.90;;;;;;5027105;28;20493;-65
2022/08/01 04:25:55;;;;;;;0.40;0.30;;;17.30;99.90;;;;;;5039982;28;20461;-65
2022/08/01 04:28:24;;;;;;;0.40;0.40;;;17.30;99.90;;;;;;5034010;28;20462;-65
2022/08/01 04:30:55;;;;;;;0.30;0.30;;;17.30;99.90;;;;;;5007294;28;20430;-65
2022/08/01 04:33:29;;;;;;;0.60;0.30;;;17.30;99.90;;;;;;5017305;28;20491;-65
2022/08/01 04:35:59;;;;;;;0.28;0.28;;;17.20;99.90;;;;;;5038606;28;20425;-65
2022/08/01 04:38:33;;;;;;;0.50;0.30;;;17.30;99.90;;;;;;5034798;28;20879;-65
2022/08/01 04:41:02;;;;;;;0.30;0.30;;;17.30;99.90;;;;;;5029987;28;20427;-65
2022/08/01 04:43:37;;;;;;;0.40;0.40;;;17.30;99.90;;;;;;5019086;28;20435;-65
2022/08/01 04:46:05;;;;;;;0.30;0.30;;;17.20;99.90;;;;;;5027824;28;20440;-65
2022/08/01 04:48:34;;;;;;;0.22;0.22;;;17.20;99.90;;;;;;5026139;28;20461;-65
2022/08/01 04:51:01;;;;;;;0.28;0.28;;;17.20;99.90;;;;;;5000323;28;20431;-65
2022/08/01 04:53:27;;;;;;;0.40;0.40;;;17.10;99.90;;;;;;5016519;28;20459;-65
2022/08/01 04:55:55;;;;;;;0.38;0.38;;;17.10;99.90;;;;;;5028543;28;20421;-65
2022/08/01 04:58:25;;;;;;;0.30;0.30;;;17.20;99.90;;;;;;5016665;28;20856;-65
2022/08/01 05:00:51;;;;;;;0.20;0.20;;;17.10;99.90;;;;;;5007143;28;21525;-65
2022/08/01 05:03:21;;;;;;;0.60;0.30;;;17.10;99.90;;;;;;5016328;28;20883;-65
2022/08/01 05:05:48;;;;;;;0.20;0.20;;;17.20;99.90;;;;;;5016199;28;20815;-65
2022/08/01 05:08:16;;;;;;;0.40;0.40;;;17.40;99.90;;;;;;5035756;28;21134;-65
2022/08/01 05:10:42;;;;;;;0.30;0.30;;;17.70;99.90;;;;;;5021860;28;20427;-65
2022/08/01 05:13:10;;;;;;;0.30;0.30;;;18.00;99.90;;;;;;5017526;28;20520;-65
2022/08/01 05:15:37;;;;;;;0.30;0.30;;;18.10;99.90;;;;;;5025812;28;20544;-64
2022/08/01 05:18:04;;;;;;;0.20;0.20;;;18.10;99.90;;;;;;5017586;28;21016;-65
2022/08/01 05:20:34;;;;;;;0.30;0.20;;;18.00;99.90;;;;;;5013705;28;20992;-65
2022/08/01 05:23:01;;;;;;;0.30;0.30;;;18.10;99.90;;;;;;5007591;28;20530;-65
2022/08/01 05:25:32;;;;;;;0.30;0.30;;;18.10;99.90;;;;;;5019478;28;20819;-65
2022/08/01 05:28:21;;;;;;;0.30;0.30;;;18.20;99.90;;;;;;5013013;28;20418;-65
2022/08/01 05:30:47;;;;;;;0.20;0.20;;;18.40;99.90;;;;;;5034624;28;20439;-65
2022/08/01 05:33:14;;;;;;;0.20;0.20;;;18.70;99.90;;;;;;5034386;28;20432;-65
2022/08/01 05:35:41;;;;;;;0.28;0.28;;;19.00;99.90;;;;;;5022332;28;20479;-65
2022/08/01 05:38:15;;;;;;;0.30;0.30;;;19.20;99.90;;;;;;5020702;28;20854;-65
2022/08/01 05:40:44;;;;;;;0.40;0.40;;;19.40;99.90;;;;;;5009024;28;20438;-65
2022/08/01 05:43:11;;;;;;;0.30;0.30;;;19.60;99.90;;;;;;5042038;28;20451;-65
2022/08/01 05:45:38;;;;;;;0.30;0.30;;;19.80;99.90;;;;;;5028261;28;20431;-65
2022/08/01 05:48:05;;;;;;;0.40;0.40;;;20.00;99.90;;;;;;5028838;28;20437;-65
2022/08/01 05:50:33;;;;;;;0.38;0.22;;;20.20;99.90;;;;;;5017967;28;20431;-65
2022/08/01 05:53:00;;;;;;;1.40;0.30;;;20.60;99.90;;;;;;5022887;28;20468;-65
2022/08/01 05:55:27;;;;;;;0.30;0.30;;;20.90;99.90;;;;;;5015889;28;20498;-65
2022/08/01 05:57:53;;;;;;;0.30;0.30;;;21.30;99.90;;;;;;5025606;28;20429;-64
2022/08/01 06:00:21;;;;;;;0.20;0.20;;;21.70;99.90;;;;;;5036988;28;20528;-65
2022/08/01 06:02:47;;;;;;;0.30;0.30;;;22.00;99.90;;;;;;5011841;28;20933;-65
2022/08/01 06:05:15;;;;;;;0.20;0.20;;;22.20;99.90;;;;;;5031518;28;20452;-65
2022/08/01 06:07:42;;;;;;;0.30;0.25;;;22.10;99.90;;;;;;5034378;28;20529;-65
2022/08/01 06:10:09;;;;;;;0.30;0.30;;;21.90;99.90;;;;;;5031523;28;20496;-65
2022/08/01 06:12:42;;;;;;;0.50;0.30;;;21.80;99.90;;;;;;5021512;28;21137;-65
2022/08/01 06:15:09;;;;;;;0.30;0.30;;;21.90;99.90;;;;;;5016642;28;20896;-65
2022/08/01 06:17:36;;;;;;;0.30;0.30;;;22.00;99.90;;;;;;5023811;28;20553;-65
2022/08/01 06:20:05;;;;;;;0.50;0.50;;;22.20;99.90;;;;;;5023852;28;20903;-65
2022/08/01 06:22:35;;;;;;;0.32;0.32;;;22.20;99.90;;;;;;5020666;28;20776;-65
2022/08/01 06:25:02;;;;;;;0.20;0.20;;;22.30;99.90;;;;;;5048940;28;20433;-65
2022/08/01 06:27:29;;;;;;;0.20;0.20;;;22.30;99.90;;;;;;5044727;28;21002;-65
2022/08/01 06:29:56;;;;;;;0.40;0.40;;;22.50;99.90;;;;;;5017712;28;20431;-65
2022/08/01 06:32:24;;;;;;;0.30;0.30;;;22.60;99.90;;;;;;5036014;28;20429;-65
2022/08/01 06:34:54;;;;;;;0.30;0.30;;;22.70;99.90;;;;;;5053365;28;20985;-65
2022/08/01 06:37:22;;;;;;;0.20;0.20;;;22.80;99.90;;;;;;5038065;28;20430;-65
2022/08/01 06:39:56;;;;;;;0.30;0.30;;;22.90;99.90;;;;;;5016564;28;20445;-65
2022/08/01 06:42:24;;;;;;;0.35;0.35;;;22.90;99.90;;;;;;5029174;28;20919;-66
2022/08/01 06:44:51;;;;;;;0.20;0.20;;;22.80;99.90;;;;;;5019403;28;20492;-65
2022/08/01 06:47:17;;;;;;;0.20;0.20;;;22.80;99.90;;;;;;5019612;28;20459;-65
2022/08/01 06:49:44;;;;;;;0.50;0.30;;;22.70;99.90;;;;;;5015639;28;20529;-65
2022/08/01 06:52:14;;;;;;;0.30;0.30;;;23.20;99.90;;;;;;5031816;28;20457;-65
2022/08/01 06:54:41;;;;;;;0.20;0.20;;;24.00;99.90;;;;;;5023966;28;20525;-66
2022/08/01 06:57:07;;;;;;;0.20;0.20;;;25.30;99.90;;;;;;5023981;28;20903;-66
2022/08/01 06:59:34;;;;;;;0.30;0.30;;;26.30;99.90;;;;;;5030283;28;20438;-66
2022/08/01 07:02:01;;;;;;;0.30;0.27;;;26.90;99.90;;;;;;5025694;28;20560;-66
2022/08/01 07:04:28;;;;;;;0.40;0.40;;;27.50;99.90;;;;;;5029908;28;20441;-66
2022/08/01 07:06:55;;;;;;;0.25;0.25;;;27.70;99.90;;;;;;5028998;28;20441;-66
2022/08/01 07:09:22;;;;;;;0.30;0.30;;;28.70;99.90;;;;;;5020196;28;20426;-65
2022/08/01 07:11:50;;;;;;;0.40;0.40;;;28.70;99.90;;;;;;5027495;28;20426;-64
2022/08/01 07:14:17;;;;;;;0.35;0.35;;;27.70;99.90;;;;;;5023643;28;20460;-64
2022/08/01 07:16:43;;;;;;;0.30;0.30;;;27.50;99.90;;;;;;5022568;28;20588;-64
2022/08/01 07:19:10;;;;;;;0.30;0.30;;;26.90;99.90;;;;;;5024061;28;20438;-64
2022/08/01 07:21:40;;;;;;;0.30;0.30;;;26.90;99.90;;;;;;5021313;28;20889;-64
2022/08/01 07:24:09;;;;;;;0.43;0.43;;;26.80;99.90;;;;;;5031878;28;20522;-65
2022/08/01 07:26:45;;;;;;;0.40;0.40;;;27.00;99.90;;;;;;5035740;28;20547;-64
2022/08/01 07:29:26;;;;;;;0.40;0.40;;;27.90;99.90;;;;;;5030729;28;20448;-64
2022/08/01 07:31:56;;;;;;;0.30;0.30;;;27.90;99.90;;;;;;5032493;28;20494;-64
2022/08/01 07:34:24;;;;;;;0.40;0.40;;;27.00;99.90;;;;;;5019175;28;20440;-66
2022/08/01 07:36:52;;;;;;;0.40;0.40;;;26.50;99.90;;;;;;5032423;28;20437;-64
2022/08/01 07:39:22;;;;;;;0.40;0.40;;;26.50;99.90;;;;;;5025247;28;20433;-64
2022/08/01 07:41:49;;;;;;;0.40;0.40;;;26.20;99.90;;;;;;5026636;28;20437;-64
2022/08/01 07:44:34;;;;;;;0.35;0.35;;;25.30;99.90;;;;;;5030280;28;20434;-63
2022/08/01 07:47:01;;;;;;;0.30;0.30;;;25.10;99.90;;;;;;5037666;28;20435;-64
2022/08/01 07:49:27;;;;;;;0.40;0.40;;;25.10;99.90;;;;;;5029226;28;20439;-63
2022/08/01 07:51:54;;;;;;;0.30;0.30;;;25.10;99.90;;;;;;5032565;28;20512;-64
2022/08/01 07:54:32;;;;;;;0.50;0.32;;;25.30;99.90;;;;;;5025740;28;20430;-64
2022/08/01 07:57:01;;;;;;;0.30;0.30;;;26.00;99.90;;;;;;5028842;28;20431;-63
2022/08/01 07:59:28;;;;;;;0.40;0.40;;;26.80;99.90;;;;;;5030147;28;21192;-65
2022/08/01 08:01:55;;;;;;;0.30;0.30;;;28.40;99.90;;;;;;5028128;28;20452;-65
2022/08/01 08:04:21;;;;;;;0.30;0.30;;;29.90;99.90;;;;;;5042406;28;20444;-65
2022/08/01 08:06:48;;;;;;;0.30;0.30;;;30.40;99.90;;;;;;5032066;28;20458;-64
2022/08/01 08:09:16;;;;;;;0.30;0.30;;;30.70;99.90;;;;;;5034644;28;20436;-65
2022/08/01 08:11:46;;;;;;;0.30;0.30;;;31.40;99.90;;;;;;5032519;28;20470;-64
2022/08/01 08:14:15;;;;;;;0.45;0.45;;;32.60;99.90;;;;;;5050014;28;20425;-65
2022/08/01 08:16:43;;;;;;;0.40;0.40;;;33.00;99.90;;;;;;5058008;28;20451;-65
2022/08/01 08:19:11;;;;;;;0.40;0.40;;;33.00;99.90;;;;;;5032423;28;20439;-64
2022/08/01 08:21:38;;;;;;;0.30;0.30;;;31.90;99.90;;;;;;5037887;28;20964;-64
2022/08/01 08:24:23;;;;;;;0.53;0.40;;;31.10;99.90;;;;;;5034496;28;20427;-64
2022/08/01 08:26:58;;;;;;;0.50;0.50;;;30.20;99.90;;;;;;5032603;28;20429;-66
2022/08/01 08:29:26;;;;;;;0.40;0.40;;;29.30;99.90;;;;;;5035432;28;20433;-64
2022/08/01 08:31:54;;;;;;;0.23;0.23;;;28.90;99.90;;;;;;5035504;28;20493;-64
2022/08/01 08:34:23;;;;;;;0.50;0.50;;;28.00;99.90;;;;;;5031618;28;20460;-65
2022/08/01 08:36:51;;;;;;;0.50;0.50;;;28.20;99.90;;;;;;5026562;28;20428;-65
2022/08/01 08:39:18;;;;;;;0.40;0.40;;;28.10;99.90;;;;;;5026068;28;20462;-64
2022/08/01 08:41:46;;;;;;;0.43;0.43;;;27.90;99.90;;;;;;5034415;28;20430;-65
2022/08/01 08:44:16;;;;;;;0.45;0.45;;;27.80;99.90;;;;;;5038782;28;20462;-65
2022/08/01 08:46:51;;;;;;;0.43;0.43;;;27.80;99.90;;;;;;5034835;28;20806;-66
2022/08/01 08:49:28;;;;;;;0.60;0.60;;;28.10;99.90;;;;;;5019841;28;20449;-65
2022/08/01 08:52:03;;;;;;;0.40;0.40;;;28.40;99.90;;;;;;5023935;28;20431;-66
2022/08/01 08:54:32;;;;;;;0.40;0.40;;;28.80;99.90;;;;;;5028976;28;20465;-65
2022/08/01 08:57:00;;;;;;;0.40;0.40;;;28.70;99.90;;;;;;5036016;28;20477;-66
2022/08/01 08:59:28;;;;;;;0.40;0.40;;;28.60;99.90;;;;;;5020572;28;20941;-65
2022/08/01 09:01:57;;;;;;;0.40;0.40;;;28.70;99.90;;;;;;5026208;28;20485;-66
2022/08/01 09:04:30;;;;;;;0.40;0.40;;;28.80;99.90;;;;;;5037646;28;20421;-66
2022/08/01 09:06:57;;;;;;;0.30;0.30;;;29.00;99.90;;;;;;5029274;28;20439;-65
2022/08/01 09:09:24;;;;;;;0.40;0.40;;;29.10;99.90;;;;;;5027918;28;20431;-67
2022/08/01 09:11:51;;;;;;;0.60;0.60;;;28.80;99.90;;;;;;5022882;28;20523;-66
2022/08/01 09:14:25;;;;;;;0.30;0.30;;;28.80;99.90;;;;;;5015226;28;20443;-66
2022/08/01 09:17:21;;;;;;;0.40;0.40;;;29.50;99.90;;;;;;5026117;28;20528;-66
2022/08/01 09:19:54;;;;;;;0.40;0.40;;;30.20;99.90;;;;;;5004746;28;20914;-64
2022/08/01 09:22:24;;;;;;;0.50;0.50;;;30.50;99.90;;;;;;5003101;28;20468;-65
2022/08/01 09:25:04;;;;;;;0.30;0.30;;;30.40;99.90;;;;;;5006292;28;20536;-65
2022/08/01 09:27:31;;;;;;;0.50;0.50;;;30.20;99.90;;;;;;5015650;28;20433;-66
2022/08/01 09:30:13;;;;;;;0.40;0.40;;;29.90;99.90;;;;;;5005792;28;20500;-65
2022/08/01 09:32:56;;;;;;;0.47;0.47;;;30.20;99.90;;;;;;5003269;28;20555;-66
2022/08/01 09:35:31;;;;;;;0.52;0.52;;;29.90;99.90;;;;;;5011350;28;20468;-65
2022/08/01 09:38:16;;;;;;;0.40;0.40;;;30.00;99.90;;;;;;5000236;28;20441;-68
2022/08/01 09:40:53;;;;;;;0.50;0.50;;;30.10;99.90;;;;;;5000141;28;20525;-67
2022/08/01 09:43:24;;;;;;;0.40;0.40;;;30.20;99.90;;;;;;5021926;28;20802;-67
2022/08/01 09:45:53;;;;;;;0.40;0.40;;;29.80;99.90;;;;;;5014201;28;20544;-67
2022/08/01 09:48:21;;;;;;;0.60;0.60;;;29.50;99.90;;;;;;5006528;28;20932;-67
2022/08/01 09:50:58;;;;;;;0.40;0.40;;;29.30;99.90;;;;;;5010931;28;20899;-67
2022/08/01 09:53:44;;;;;;;0.38;0.38;;;29.30;99.90;;;;;;5006243;28;20510;-66
2022/08/01 09:56:20;;;;;;;0.40;0.40;;;28.50;99.90;;;;;;5012876;28;20423;-67
2022/08/01 09:58:58;;;;;;;0.32;0.32;;;28.20;99.90;;;;;;5021273;28;20433;-67
2022/08/01 10:01:46;;;;;;;0.40;0.40;;;27.80;99.90;;;;;;5023936;28;20514;-66
2022/08/01 10:04:22;;;;;;;0.40;0.40;;;27.50;99.90;;;;;;5016698;28;20430;-67
2022/08/01 10:06:53;;;;;;;0.40;0.40;;;27.20;99.90;;;;;;5051052;28;20434;-67
2022/08/01 10:09:33;;;;;;;0.60;0.60;;;27.10;99.90;;;;;;5015856;28;21382;-67
2022/08/01 10:12:11;;;;;;;0.40;0.40;;;26.90;99.90;;;;;;5018158;28;20431;-66
2022/08/01 10:14:45;;;;;;;0.50;0.50;;;26.90;99.90;;;;;;5008146;28;20435;-66
2022/08/01 10:17:20;;;;;;;0.60;0.60;;;27.30;99.90;;;;;;5021098;28;20551;-66
2022/08/01 10:19:50;;;;;;;0.80;0.60;;;28.50;99.90;;;;;;5020352;28;20442;-67
2022/08/01 10:22:19;;;;;;;0.60;0.60;;;29.70;99.90;;;;;;5021139;28;20481;-67
2022/08/01 10:24:47;;;;;;;0.45;0.45;;;30.70;99.90;;;;;;5020889;28;20519;-67
2022/08/01 10:27:16;;;;;;;0.43;0.43;;;31.50;99.90;;;;;;5015318;28;20430;-67
2022/08/01 10:30:05;;;;;;;0.52;0.52;;;32.50;99.90;;;;;;5017643;28;20426;-67
2022/08/01 10:32:47;;;;;;;0.60;0.60;;;33.00;99.40;;;;;;5024061;28;20486;-67
2022/08/01 10:35:17;;;;;;;0.47;0.47;;;32.60;98.90;;;;;;5041849;28;20812;-67
2022/08/01 10:38:05;;;;;;;0.40;0.40;;;32.40;99.20;;;;;;5007819;28;20419;-68
2022/08/01 10:40:37;;;;;;;0.40;0.40;;;31.80;99.30;;;;;;5046300;28;20885;-68
2022/08/01 10:43:06;;;;;;;0.40;0.40;;;31.90;99.20;;;;;;5013525;28;20512;-68
2022/08/01 10:45:33;;;;;;;0.50;0.50;;;31.50;99.20;;;;;;5025912;28;20430;-67
2022/08/01 10:48:11;;;;;;;0.50;0.50;;;31.20;99.90;;;;;;5034568;28;20428;-67
2022/08/01 10:50:43;;;;;;;0.70;0.50;;;31.00;99.70;;;;;;5062412;28;20782;-67
2022/08/01 10:53:17;;;;;;;0.50;0.50;;;30.50;99.90;;;;;;5044739;28;20429;-66
2022/08/01 10:55:59;;;;;;;0.55;0.55;;;30.90;99.90;;;;;;5027280;28;20421;-66
2022/08/01 10:58:41;;;;;;;0.40;0.40;;;30.50;98.80;;;;;;5028831;28;20439;-67
2022/08/01 11:01:22;;;;;;;0.43;0.43;;;30.70;99.30;;;;;;5021070;28;20438;-66
2022/08/01 11:04:00;;;;;;;0.60;0.60;;;30.50;98.70;;;;;;5029468;28;20512;-68
2022/08/01 11:06:46;;;;;;;0.50;0.50;;;31.10;99.60;;;;;;5031079;28;20440;-68
2022/08/01 11:09:26;;;;;;;0.50;0.50;;;32.10;98.80;;;;;;5021539;28;20434;-66
2022/08/01 11:12:15;;;;;;;0.50;0.50;;;32.10;98.20;;;;;;5018171;28;20435;-68
2022/08/01 11:15:00;;;;;;;0.70;0.60;;;31.80;98.30;;;;;;5026245;28;20438;-67
2022/08/01 11:17:48;;;;;;;0.40;0.40;;;30.30;99.00;;;;;;5020298;28;20487;-67
2022/08/01 11:20:31;;;;;;;0.50;0.50;;;30.10;99.60;;;;;;5022716;28;20442;-68
2022/08/01 11:23:01;;;;;;;0.60;0.60;;;30.70;99.90;;;;;;5014754;28;20489;-67
2022/08/01 11:25:46;;;;;;;0.68;0.68;;;31.50;98.80;;;;;;5019961;28;20562;-68
2022/08/01 11:28:33;;;;;;;0.40;0.40;;;32.30;97.40;;;;;;5022761;28;20426;-67
2022/08/01 11:31:08;;;;;;;0.40;0.40;;;32.80;96.70;;;;;;5020827;28;20977;-68
2022/08/01 11:33:44;;;;;;;0.40;0.40;;;33.20;95.50;;;;;;5019435;28;20517;-68
2022/08/01 11:36:12;;;;;;;0.50;0.50;;;33.20;96.80;;;;;;5026488;28;20475;-67
2022/08/01 11:39:13;;;;;;;0.40;0.40;;;32.40;96.40;;;;;;5028517;28;20460;-67
2022/08/01 11:41:41;;;;;;;0.32;0.32;;;32.10;96.70;;;;;;5020255;28;21395;-66
2022/08/01 11:44:14;;;;;;;0.40;0.40;;;31.20;96.70;;;;;;5020271;28;20508;-67
2022/08/01 11:46:56;;;;;;;0.40;0.40;;;31.40;98.20;;;;;;5021547;28;20443;-68
2022/08/01 11:49:34;;;;;;;0.38;0.38;;;32.20;97.60;;;;;;5032163;28;20535;-67
2022/08/01 11:52:07;;;;;;;0.38;0.38;;;32.90;96.60;;;;;;5047014;28;20445;-68
2022/08/01 11:54:54;;;;;;;0.40;0.40;;;32.70;96.60;;;;;;5022393;28;20470;-67
2022/08/01 11:57:25;;;;;;;0.40;0.40;;;32.80;95.80;;;;;;5018122;28;20539;-67
2022/08/01 12:00:12;;;;;;;0.60;0.60;;;31.40;96.60;;;;;;5014333;28;20439;-68
2022/08/01 12:02:43;;;;;;;0.40;0.40;;;31.70;96.40;;;;;;5017235;28;20447;-67
2022/08/01 12:05:14;;;;;;;0.40;0.40;;;31.30;96.30;;;;;;5019030;28;20519;-66
2022/08/01 12:07:44;;;;;;;0.40;0.40;;;31.90;96.00;;;;;;5021937;28;20483;-67
2022/08/01 12:10:15;;;;;;;0.30;0.30;;;31.80;95.90;;;;;;5019012;28;20431;-67
2022/08/01 12:12:54;;;;;;;0.40;0.40;;;32.60;95.40;;;;;;5023507;28;20446;-66
2022/08/01 12:15:24;;;;;;;0.40;0.40;;;33.00;95.20;;;;;;5036148;28;20584;-68
2022/08/01 12:17:56;;;;;;;0.40;0.40;;;33.10;95.50;;;;;;5017524;28;20431;-68
2022/08/01 12:20:44;;;;;;;0.40;0.40;;;33.10;94.70;;;;;;5021982;28;20490;-67
2022/08/01 12:23:23;;;;;;;0.40;0.40;;;32.90;94.90;;;;;;5015582;28;22086;-67
2022/08/01 12:25:53;;;;;;;0.40;0.40;;;32.70;94.70;;;;;;5027614;28;20510;-68
2022/08/01 12:28:20;;;;;;;0.40;0.40;;;32.40;94.90;;;;;;5048350;28;20434;-67
2022/08/01 12:30:48;;;;;;;0.30;0.30;;;32.40;94.90;;;;;;5020746;28;20569;-67
2022/08/01 12:33:18;;;;;;;0.30;0.30;;;31.50;95.10;;;;;;5033010;28;20443;-68
2022/08/01 12:35:46;;;;;;;0.40;0.40;;;31.90;95.10;;;;;;5022921;28;20436;-68
2022/08/01 12:38:26;;;;;;;0.40;0.40;;;32.00;95.60;;;;;;5028893;28;20435;-68
2022/08/01 12:40:54;;;;;;;0.30;0.30;;;32.10;95.10;;;;;;5018612;28;20486;-67
2022/08/01 12:43:24;;;;;;;0.40;0.40;;;31.80;95.60;;;;;;5017955;28;21094;-68
2022/08/01 12:45:56;;;;;;;1.60;0.40;;;32.30;95.30;;;;;;5047065;28;21181;-68
2022/08/01 12:48:25;;;;;;;0.43;0.43;;;32.70;95.20;;;;;;5007262;28;22365;-66
2022/08/01 12:50:53;;;;;;;0.40;0.40;;;33.40;94.90;;;;;;5028015;28;20462;-68
2022/08/01 12:53:20;;;;;;;0.35;0.35;;;34.00;94.70;;;;;;5037498;28;20999;-67
2022/08/01 12:55:53;;;;;;;0.50;0.50;;;33.60;93.20;;;;;;5021536;28;20458;-67
2022/08/01 12:58:32;;;;;;;0.38;0.30;;;33.60;93.50;;;;;;5018109;28;20956;-67
2022/08/01 13:01:12;;;;;;;0.30;0.30;;;32.40;93.50;;;;;;5027837;28;21453;-67
2022/08/01 13:03:40;;;;;;;0.38;0.38;;;31.80;94.30;;;;;;5028943;28;20477;-69
2022/08/01 13:06:12;;;;;;;0.50;0.50;;;32.10;95.40;;;;;;5010155;28;20515;-67
2022/08/01 13:08:39;;;;;;;0.50;0.50;;;32.40;95.00;;;;;;5023329;28;20435;-69
2022/08/01 13:11:09;;;;;;;0.50;0.50;;;32.90;94.60;;;;;;5029987;28;20430;-67